createdAt,value
2018-08-24T00:00:16.000Z,6.40
2018-08-24T00:00:36.580Z,6.10
2018-08-24T00:00:56.298Z,6.00
2018-08-24T00:01:16.401Z,5.70
2018-08-24T00:01:37.208Z,6.10
2018-08-24T00:01:56.706Z,5.80
2018-08-24T00:02:17.209Z,5.60
2018-08-24T00:02:37.914Z,5.50
2018-08-24T00:02:57.875Z,5.80
2018-08-24T00:03:18.895Z,6.30
2018-08-24T00:03:38.568Z,6.00
2018-08-24T00:03:58.606Z,5.60
2018-08-24T00:04:19.612Z,5.40
2018-08-24T00:04:38.798Z,5.30
2018-08-24T00:04:58.699Z,5.40
2018-08-24T00:05:19.924Z,5.50
2018-08-24T00:05:39.487Z,6.00
2018-08-24T00:05:59.560Z,6.40
2018-08-24T00:06:20.342Z,6.40
2018-08-24T00:06:39.702Z,6.20
2018-08-24T00:07:00.146Z,6.30
2018-08-24T00:07:21.523Z,6.10
2018-08-24T00:07:40.846Z,6.10
2018-08-24T00:08:01.506Z,5.80
2018-08-24T00:08:22.113Z,6.00
2018-08-24T00:08:41.559Z,6.00
2018-08-24T00:09:02.748Z,5.90
2018-08-24T00:09:22.624Z,6.20
2018-08-24T00:09:42.594Z,6.10
2018-08-24T00:10:03.674Z,6.40
2018-08-24T00:10:23.451Z,6.00
2018-08-24T00:10:43.602Z,6.00
2018-08-24T00:11:04.106Z,5.90
2018-08-24T00:11:23.759Z,6.20
2018-08-24T00:11:43.734Z,6.20
2018-08-24T00:12:04.918Z,6.00
2018-08-24T00:12:24.633Z,5.90
2018-08-24T00:12:44.514Z,5.80
2018-08-24T00:13:05.540Z,6.00
2018-08-24T00:13:25.265Z,6.20
2018-08-24T00:13:45.352Z,6.60
2018-08-24T00:14:06.342Z,6.50
2018-08-24T00:14:25.794Z,6.40
2018-08-24T00:14:46.278Z,6.00
2018-08-24T00:15:07.214Z,5.90
2018-08-24T00:15:27.076Z,5.90
2018-08-24T00:15:47.426Z,6.00
2018-08-24T00:16:07.985Z,5.80
2018-08-24T00:16:27.959Z,5.70
2018-08-24T00:16:49.184Z,5.60
2018-08-24T00:17:08.535Z,5.80
2018-08-24T00:17:28.996Z,5.40
2018-08-24T00:17:50.413Z,6.00
2018-08-24T00:18:09.996Z,5.90
2018-08-24T00:18:29.913Z,6.20
2018-08-24T00:18:50.661Z,6.20
2018-08-24T00:19:10.580Z,6.20
2018-08-24T00:19:31.056Z,6.30
2018-08-24T00:19:52.283Z,5.90
2018-08-24T00:20:11.705Z,5.60
2018-08-24T00:20:32.189Z,5.10
2018-08-24T00:20:52.944Z,5.30
2018-08-24T00:21:12.811Z,5.20
2018-08-24T00:21:33.651Z,5.30
2018-08-24T00:21:53.857Z,5.60
2018-08-24T00:22:13.905Z,6.20
2018-08-24T00:22:34.595Z,6.50
2018-08-24T00:22:54.420Z,6.70
2018-08-24T00:23:14.275Z,6.40
2018-08-24T00:23:35.695Z,6.20
2018-08-24T00:23:55.136Z,5.90
2018-08-24T00:24:15.700Z,6.10
2018-08-24T00:24:36.534Z,6.30
2018-08-24T00:24:56.006Z,6.50
2018-08-24T00:25:16.658Z,6.20
2018-08-24T00:25:37.176Z,6.30
2018-08-24T00:25:56.786Z,6.10
2018-08-24T00:26:16.756Z,6.40
2018-08-24T00:26:37.526Z,6.20
2018-08-24T00:26:57.381Z,6.50
2018-08-24T00:27:17.928Z,6.60
2018-08-24T00:27:38.081Z,6.40
2018-08-24T00:27:58.328Z,6.30
2018-08-24T00:28:18.739Z,6.30
2018-08-24T00:28:38.944Z,6.20
2018-08-24T00:28:59.069Z,6.30
2018-08-24T00:29:19.976Z,6.10
2018-08-24T00:29:39.733Z,6.20
2018-08-24T00:29:59.682Z,6.00
2018-08-24T00:30:21.109Z,5.90
2018-08-24T00:30:40.568Z,5.70
2018-08-24T00:31:01.144Z,5.70
2018-08-24T00:31:21.274Z,5.90
2018-08-24T00:31:41.209Z,6.10
2018-08-24T00:32:01.795Z,6.20
2018-08-24T00:32:22.141Z,5.80
2018-08-24T00:32:42.280Z,5.50
2018-08-24T00:33:02.653Z,5.30
2018-08-24T00:33:22.983Z,5.40
2018-08-24T00:33:42.954Z,5.40
2018-08-24T00:34:04.347Z,5.70
2018-08-24T00:34:24.056Z,5.80
2018-08-24T00:34:43.952Z,6.00
2018-08-24T00:35:05.360Z,6.00
2018-08-24T00:35:24.802Z,6.30
2018-08-24T00:35:45.221Z,6.20
2018-08-24T00:36:06.609Z,6.00
2018-08-24T00:36:26.034Z,6.20
2018-08-24T00:36:46.390Z,6.20
2018-08-24T00:37:07.349Z,6.00
2018-08-24T00:37:27.202Z,5.80
2018-08-24T00:37:47.748Z,6.10
2018-08-24T00:38:07.943Z,6.20
2018-08-24T00:38:27.940Z,6.20
2018-08-24T00:38:49.104Z,6.30
2018-08-24T00:39:08.483Z,6.20
2018-08-24T00:39:28.842Z,6.10
2018-08-24T00:39:50.146Z,5.80
2018-08-24T00:40:09.509Z,5.70
2018-08-24T00:40:30.086Z,5.60
2018-08-24T00:40:50.873Z,5.60
2018-08-24T00:41:10.327Z,5.50
2018-08-24T00:41:30.786Z,5.80
2018-08-24T00:41:51.912Z,5.70
2018-08-24T00:42:11.491Z,6.20
2018-08-24T00:42:31.623Z,6.30
2018-08-24T00:42:52.146Z,6.70
2018-08-24T00:43:11.494Z,6.60
2018-08-24T00:43:31.908Z,6.30
2018-08-24T00:43:52.541Z,6.40
2018-08-24T00:44:12.475Z,5.90
2018-08-24T00:44:32.835Z,6.10
2018-08-24T00:44:53.576Z,5.90
2018-08-24T00:45:13.770Z,6.20
2018-08-24T00:45:34.002Z,6.40
2018-08-24T00:45:54.176Z,6.70
2018-08-24T00:46:14.126Z,6.70
2018-08-24T00:46:35.553Z,6.50
2018-08-24T00:46:54.916Z,6.30
2018-08-24T00:47:15.356Z,6.10
2018-08-24T00:47:36.887Z,6.30
2018-08-24T00:47:55.813Z,6.00
2018-08-24T00:48:16.276Z,6.30
2018-08-24T00:48:37.325Z,6.30
2018-08-24T00:48:56.693Z,6.40
2018-08-24T00:49:17.117Z,6.40
2018-08-24T00:49:37.768Z,6.10
2018-08-24T00:49:57.674Z,6.30
2018-08-24T00:50:18.577Z,6.20
2018-08-24T00:50:38.866Z,6.20
2018-08-24T00:50:58.829Z,6.30
2018-08-24T00:51:19.917Z,6.00
2018-08-24T00:51:39.341Z,5.90
2018-08-24T00:51:59.735Z,6.00
2018-08-24T00:52:21.253Z,6.40
2018-08-24T00:52:40.466Z,6.30
2018-08-24T00:53:00.349Z,6.10
2018-08-24T00:53:21.886Z,6.10
2018-08-24T00:53:40.825Z,6.20
2018-08-24T00:54:01.318Z,6.00
2018-08-24T00:54:22.417Z,6.20
2018-08-24T00:54:41.821Z,6.30
2018-08-24T00:55:02.545Z,6.30
2018-08-24T00:55:22.707Z,5.60
2018-08-24T00:55:42.638Z,5.60
2018-08-24T00:56:03.770Z,5.80
2018-08-24T00:56:23.648Z,6.40
2018-08-24T00:56:43.826Z,6.40
2018-08-24T00:57:04.496Z,6.40
2018-08-24T00:57:24.364Z,6.60
2018-08-24T00:57:44.339Z,6.80
2018-08-24T00:58:05.407Z,6.80
2018-08-24T00:58:24.869Z,6.70
2018-08-24T00:58:45.369Z,6.40
2018-08-24T00:59:06.041Z,6.50
2018-08-24T00:59:25.472Z,6.10
2018-08-24T00:59:45.850Z,6.10
2018-08-24T01:00:07.091Z,6.00
2018-08-24T01:00:26.435Z,6.20
2018-08-24T01:00:46.882Z,6.50
2018-08-24T01:01:07.710Z,6.60
2018-08-24T01:01:27.568Z,6.60
2018-08-24T01:01:48.244Z,6.40
2018-08-24T01:02:08.403Z,6.50
2018-08-24T01:02:28.849Z,6.60
2018-08-24T01:02:49.596Z,6.40
2018-08-24T01:03:09.206Z,6.30
2018-08-24T01:03:29.194Z,6.50
2018-08-24T01:03:50.510Z,6.80
2018-08-24T01:04:09.887Z,6.80
2018-08-24T01:04:30.321Z,6.80
2018-08-24T01:04:51.440Z,6.70
2018-08-24T01:05:10.840Z,6.30
2018-08-24T01:05:31.283Z,6.30
2018-08-24T01:05:52.487Z,6.10
2018-08-24T01:06:12.156Z,6.40
2018-08-24T01:06:32.116Z,6.20
2018-08-24T01:06:52.783Z,6.10
2018-08-24T01:07:12.754Z,6.00
2018-08-24T01:07:33.713Z,6.00
2018-08-24T01:07:54.106Z,6.20
2018-08-24T01:08:14.003Z,6.30
2018-08-24T01:08:35.193Z,6.50
2018-08-24T01:08:54.569Z,6.30
2018-08-24T01:09:14.927Z,5.90
2018-08-24T01:09:36.229Z,6.10
2018-08-24T01:09:55.638Z,6.20
2018-08-24T01:10:16.458Z,6.50
2018-08-24T01:10:56.623Z,6.80
2018-08-24T01:11:16.554Z,6.90
2018-08-24T01:11:37.476Z,6.90
2018-08-24T01:11:57.401Z,6.80
2018-08-24T01:12:18.622Z,6.70
2018-08-24T01:12:38.293Z,6.70
2018-08-24T01:12:58.227Z,6.60
2018-08-24T01:13:19.650Z,6.70
2018-08-24T01:13:39.265Z,6.50
2018-08-24T01:13:59.147Z,6.40
2018-08-24T01:14:20.373Z,6.10
2018-08-24T01:14:39.737Z,6.30
2018-08-24T01:15:00.285Z,6.10
2018-08-24T01:15:21.301Z,6.50
2018-08-24T01:15:40.327Z,6.50
2018-08-24T01:16:00.400Z,6.60
2018-08-24T01:16:21.310Z,6.60
2018-08-24T01:16:40.738Z,6.50
2018-08-24T01:17:01.128Z,6.90
2018-08-24T01:17:22.065Z,7.20
2018-08-24T01:17:41.977Z,7.10
2018-08-24T01:18:02.837Z,6.80
2018-08-24T01:18:22.993Z,6.70
2018-08-24T01:18:42.952Z,7.30
2018-08-24T01:19:04.318Z,7.50
2018-08-24T01:19:24.136Z,7.50
2018-08-24T01:19:44.069Z,7.00
2018-08-24T01:20:05.160Z,6.80
2018-08-24T01:20:24.705Z,6.60
2018-08-24T01:20:44.695Z,6.60
2018-08-24T01:21:06.085Z,6.60
2018-08-24T01:21:25.512Z,6.80
2018-08-24T01:21:45.866Z,7.30
2018-08-24T01:22:07.020Z,7.20
2018-08-24T01:22:26.439Z,7.40
2018-08-24T01:22:46.824Z,7.00
2018-08-24T01:23:07.432Z,7.00
2018-08-24T01:23:27.378Z,7.10
2018-08-24T01:23:47.759Z,7.30
2018-08-24T01:24:08.466Z,7.30
2018-08-24T01:24:28.402Z,7.20
2018-08-24T01:24:49.635Z,7.50
2018-08-24T01:25:09.294Z,7.80
2018-08-24T01:25:29.224Z,7.70
2018-08-24T01:25:50.553Z,7.60
2018-08-24T01:26:10.016Z,7.80
2018-08-24T01:26:30.663Z,7.60
2018-08-24T01:26:51.684Z,7.30
2018-08-24T01:27:10.608Z,7.50
2018-08-24T01:27:31.125Z,7.70
2018-08-24T01:27:51.795Z,7.70
2018-08-24T01:28:11.409Z,7.50
2018-08-24T01:28:31.300Z,7.70
2018-08-24T01:28:52.248Z,8.00
2018-08-24T01:29:12.155Z,7.90
2018-08-24T01:29:32.515Z,7.80
2018-08-24T01:29:53.244Z,7.80
2018-08-24T01:30:13.182Z,8.40
2018-08-24T01:30:34.303Z,8.30
2018-08-24T01:30:54.012Z,8.50
2018-08-24T01:31:14.089Z,8.20
2018-08-24T01:31:34.820Z,8.10
2018-08-24T01:31:54.440Z,8.10
2018-08-24T01:32:14.326Z,7.90
2018-08-24T01:32:35.751Z,8.10
2018-08-24T01:32:55.174Z,8.30
2018-08-24T01:33:15.814Z,8.60
2018-08-24T01:33:36.474Z,8.10
2018-08-24T01:33:55.919Z,7.70
2018-08-24T01:34:16.378Z,7.30
2018-08-24T01:34:37.400Z,7.50
2018-08-24T01:34:56.839Z,8.00
2018-08-24T01:35:17.194Z,8.10
2018-08-24T01:35:37.948Z,8.10
2018-08-24T01:35:58.017Z,7.90
2018-08-24T01:36:18.060Z,7.60
2018-08-24T01:36:38.235Z,7.80
2018-08-24T01:36:58.218Z,7.80
2018-08-24T01:37:19.398Z,8.30
2018-08-24T01:37:39.083Z,8.20
2018-08-24T01:37:59.143Z,8.50
2018-08-24T01:38:19.914Z,8.60
2018-08-24T01:38:39.824Z,8.60
2018-08-24T01:38:59.901Z,8.40
2018-08-24T01:39:20.680Z,8.10
2018-08-24T01:39:40.045Z,8.20
2018-08-24T01:40:00.475Z,8.40
2018-08-24T01:40:21.771Z,8.80
2018-08-24T01:40:41.342Z,8.50
2018-08-24T01:41:01.227Z,8.30
2018-08-24T01:41:22.209Z,7.90
2018-08-24T01:41:42.188Z,8.00
2018-08-24T01:42:02.939Z,8.20
2018-08-24T01:42:23.137Z,8.40
2018-08-24T01:42:43.005Z,8.50
2018-08-24T01:43:04.282Z,8.30
2018-08-24T01:43:24.051Z,8.00
2018-08-24T01:43:43.986Z,8.10
2018-08-24T01:44:05.126Z,7.70
2018-08-24T01:44:24.639Z,8.10
2018-08-24T01:44:44.615Z,8.00
2018-08-24T01:45:06.138Z,8.60
2018-08-24T01:45:25.062Z,8.30
2018-08-24T01:45:45.559Z,8.30
2018-08-24T01:46:06.973Z,8.70
2018-08-24T01:46:26.331Z,8.40
2018-08-24T01:46:46.870Z,8.80
2018-08-24T01:47:07.490Z,8.20
2018-08-24T01:47:27.020Z,8.70
2018-08-24T01:47:46.983Z,8.30
2018-08-24T01:48:07.680Z,8.50
2018-08-24T01:48:27.637Z,8.20
2018-08-24T01:48:48.665Z,8.40
2018-08-24T01:49:08.322Z,8.00
2018-08-24T01:49:28.271Z,8.00
2018-08-24T01:49:49.480Z,8.00
2018-08-24T01:50:09.498Z,8.30
2018-08-24T01:50:28.877Z,8.60
2018-08-24T01:50:50.001Z,8.30
2018-08-24T01:51:09.525Z,8.40
2018-08-24T01:51:29.539Z,8.60
2018-08-24T01:51:50.209Z,8.80
2018-08-24T01:52:09.639Z,9.00
2018-08-24T01:52:30.031Z,8.50
2018-08-24T01:52:50.853Z,8.60
2018-08-24T01:53:10.924Z,8.40
2018-08-24T01:53:30.878Z,8.80
2018-08-24T01:53:52.083Z,8.60
2018-08-24T01:54:11.610Z,8.80
2018-08-24T01:54:31.593Z,8.60
2018-08-24T01:54:52.571Z,9.00
2018-08-24T01:55:12.696Z,9.50
2018-08-24T01:55:32.596Z,9.60
2018-08-24T01:55:53.306Z,9.50
2018-08-24T01:56:13.164Z,9.40
2018-08-24T01:56:34.370Z,9.10
2018-08-24T01:56:54.012Z,9.20
2018-08-24T01:57:14.096Z,8.50
2018-08-24T01:57:34.479Z,8.50
2018-08-24T01:57:54.618Z,8.30
2018-08-24T01:58:14.496Z,8.10
2018-08-24T01:58:36.021Z,8.10
2018-08-24T01:58:55.101Z,8.20
2018-08-24T01:59:15.023Z,8.70
2018-08-24T01:59:36.364Z,8.90
2018-08-24T01:59:55.813Z,9.10
2018-08-24T02:00:36.756Z,9.40
2018-08-24T02:00:56.697Z,8.70
2018-08-24T02:01:37.531Z,7.70
2018-08-24T02:01:57.421Z,7.90
2018-08-24T02:02:17.779Z,8.00
2018-08-24T02:02:38.517Z,8.40
2018-08-24T02:02:58.446Z,8.50
2018-08-24T02:03:19.672Z,8.30
2018-08-24T02:03:39.454Z,8.40
2018-08-24T02:03:59.486Z,8.60
2018-08-24T02:04:20.290Z,8.80
2018-08-24T02:04:39.761Z,8.70
2018-08-24T02:05:00.205Z,8.20
2018-08-24T02:05:21.526Z,7.90
2018-08-24T02:05:41.231Z,7.80
2018-08-24T02:06:01.135Z,8.10
2018-08-24T02:06:22.278Z,8.00
2018-08-24T02:06:41.801Z,7.60
2018-08-24T02:07:01.746Z,7.50
2018-08-24T02:07:22.390Z,7.60
2018-08-24T02:07:42.482Z,8.10
2018-08-24T02:08:02.668Z,7.80
2018-08-24T02:08:22.919Z,8.10
2018-08-24T02:08:42.818Z,8.00
2018-08-24T02:09:04.177Z,8.10
2018-08-24T02:09:23.853Z,8.00
2018-08-24T02:09:43.937Z,8.00
2018-08-24T02:10:04.767Z,8.60
2018-08-24T02:10:24.412Z,8.20
2018-08-24T02:10:44.396Z,8.00
2018-08-24T02:11:05.590Z,7.50
2018-08-24T02:11:25.024Z,7.60
2018-08-24T02:11:45.501Z,7.60
2018-08-24T02:12:06.836Z,7.60
2018-08-24T02:12:26.299Z,7.60
2018-08-24T02:12:46.851Z,7.50
2018-08-24T02:13:07.376Z,7.80
2018-08-24T02:13:26.988Z,7.60
2018-08-24T02:13:46.943Z,7.70
2018-08-24T02:14:07.722Z,7.60
2018-08-24T02:14:27.658Z,7.60
2018-08-24T02:14:48.312Z,8.40
2018-08-24T02:15:08.500Z,7.90
2018-08-24T02:15:28.427Z,8.30
2018-08-24T02:15:49.549Z,7.90
2018-08-24T02:16:09.130Z,8.30
2018-08-24T02:16:29.051Z,7.80
2018-08-24T02:16:50.276Z,7.60
2018-08-24T02:17:09.737Z,7.50
2018-08-24T02:17:30.385Z,7.40
2018-08-24T02:17:51.191Z,7.60
2018-08-24T02:18:10.625Z,7.40
2018-08-24T02:18:31.104Z,7.30
2018-08-24T02:18:52.161Z,6.90
2018-08-24T02:19:11.567Z,7.20
2018-08-24T02:19:32.044Z,7.30
2018-08-24T02:19:52.693Z,7.20
2018-08-24T02:20:12.595Z,7.00
2018-08-24T02:20:33.401Z,7.00
2018-08-24T02:20:53.598Z,7.30
2018-08-24T02:21:13.458Z,7.50
2018-08-24T02:21:34.546Z,7.80
2018-08-24T02:21:54.415Z,7.80
2018-08-24T02:22:14.345Z,7.80
2018-08-24T02:22:35.767Z,8.00
2018-08-24T02:22:55.385Z,8.20
2018-08-24T02:23:15.255Z,8.30
2018-08-24T02:23:36.321Z,7.70
2018-08-24T02:23:55.675Z,7.60
2018-08-24T02:24:16.095Z,7.30
2018-08-24T02:24:37.235Z,7.40
2018-08-24T02:24:56.652Z,7.20
2018-08-24T02:25:17.341Z,7.50
2018-08-24T02:25:37.653Z,7.70
2018-08-24T02:25:57.519Z,7.80
2018-08-24T02:26:18.078Z,7.70
2018-08-24T02:26:38.461Z,7.60
2018-08-24T02:27:19.017Z,7.70
2018-08-24T02:27:38.761Z,8.10
2018-08-24T02:27:58.613Z,8.20
2018-08-24T02:28:20.037Z,8.10
2018-08-24T02:28:39.541Z,8.30
2018-08-24T02:28:59.952Z,8.60
2018-08-24T02:29:21.376Z,8.70
2018-08-24T02:29:41.068Z,8.70
2018-08-24T02:30:00.981Z,8.30
2018-08-24T02:30:22.110Z,8.50
2018-08-24T02:30:41.594Z,7.90
2018-08-24T02:31:02.521Z,7.80
2018-08-24T02:31:22.808Z,7.80
2018-08-24T02:31:42.853Z,8.60
2018-08-24T02:32:03.083Z,8.90
2018-08-24T02:32:23.342Z,9.10
2018-08-24T02:32:43.318Z,9.20
2018-08-24T02:33:04.507Z,9.10
2018-08-24T02:33:24.162Z,8.70
2018-08-24T02:33:44.108Z,8.00
2018-08-24T02:34:05.333Z,8.10
2018-08-24T02:34:24.780Z,7.70
2018-08-24T02:34:45.154Z,8.10
2018-08-24T02:35:06.435Z,8.00
2018-08-24T02:35:25.803Z,8.40
2018-08-24T02:35:46.285Z,8.00
2018-08-24T02:36:07.410Z,7.90
2018-08-24T02:36:26.823Z,7.70
2018-08-24T02:37:07.662Z,7.80
2018-08-24T02:37:27.551Z,7.80
2018-08-24T02:37:48.156Z,7.50
2018-08-24T02:38:28.072Z,7.90
2018-08-24T02:38:49.392Z,8.10
2018-08-24T02:39:09.315Z,8.30
2018-08-24T02:39:29.251Z,8.20
2018-08-24T02:39:50.615Z,7.70
2018-08-24T02:40:10.087Z,7.70
2018-08-24T02:40:30.535Z,7.60
2018-08-24T02:40:51.866Z,8.50
2018-08-24T02:41:11.403Z,8.20
2018-08-24T02:41:31.443Z,8.80
2018-08-24T02:41:51.979Z,8.10
2018-08-24T02:42:11.401Z,8.20
2018-08-24T02:42:31.778Z,8.10
2018-08-24T02:42:52.598Z,8.20
2018-08-24T02:43:12.531Z,8.20
2018-08-24T02:43:33.143Z,8.30
2018-08-24T02:43:53.300Z,8.20
2018-08-24T02:44:13.257Z,8.20
2018-08-24T02:44:34.272Z,8.20
2018-08-24T02:44:54.187Z,8.30
2018-08-24T02:45:14.524Z,8.00
2018-08-24T02:45:35.307Z,7.90
2018-08-24T02:45:54.801Z,8.00
2018-08-24T02:46:15.433Z,8.50
2018-08-24T02:46:36.321Z,8.80
2018-08-24T02:46:55.770Z,9.00
2018-08-24T02:47:16.318Z,8.60
2018-08-24T02:47:36.955Z,8.10
2018-08-24T02:47:56.388Z,7.60
2018-08-24T02:48:16.867Z,7.70
2018-08-24T02:48:37.631Z,8.40
2018-08-24T02:48:57.520Z,8.70
2018-08-24T02:49:18.115Z,8.90
2018-08-24T02:49:38.422Z,8.80
2018-08-24T02:49:58.565Z,8.80
2018-08-24T02:50:19.364Z,8.90
2018-08-24T02:50:38.998Z,8.80
2018-08-24T02:50:58.968Z,8.90
2018-08-24T02:51:20.396Z,8.90
2018-08-24T02:51:40.016Z,8.90
2018-08-24T02:51:59.905Z,9.40
2018-08-24T02:52:21.203Z,9.00
2018-08-24T02:52:40.554Z,9.10
2018-08-24T02:53:01.158Z,8.70
2018-08-24T02:53:21.849Z,9.00
2018-08-24T02:54:01.238Z,9.10
2018-08-24T02:54:22.391Z,9.10
2018-08-24T02:54:41.826Z,9.60
2018-08-24T02:55:02.538Z,9.40
2018-08-24T02:55:22.682Z,9.10
2018-08-24T02:55:42.615Z,8.50
2018-08-24T02:56:03.839Z,8.50
2018-08-24T02:56:23.525Z,9.00
2018-08-24T02:56:43.527Z,9.50
2018-08-24T02:57:04.139Z,10.00
2018-08-24T02:57:23.802Z,9.80
2018-08-24T02:57:43.756Z,10.30
2018-08-24T02:58:04.875Z,9.90
2018-08-24T02:58:24.473Z,9.80
2018-08-24T02:58:44.419Z,9.20
2018-08-24T02:59:05.908Z,9.50
2018-08-24T02:59:25.373Z,9.80
2018-08-24T02:59:45.976Z,10.00
2018-08-24T03:00:06.948Z,9.40
2018-08-24T03:00:26.362Z,9.00
2018-08-24T03:00:46.786Z,8.90
2018-08-24T03:01:07.494Z,9.20
2018-08-24T03:01:27.396Z,9.40
2018-08-24T03:01:47.887Z,10.00
2018-08-24T03:02:08.257Z,10.10
2018-08-24T03:02:28.756Z,10.30
2018-08-24T03:02:49.651Z,10.10
2018-08-24T03:03:09.086Z,9.90
2018-08-24T03:03:29.563Z,9.80
2018-08-24T03:03:50.905Z,10.30
2018-08-24T03:04:10.319Z,10.90
2018-08-24T03:04:30.801Z,10.80
2018-08-24T03:04:51.843Z,10.00
2018-08-24T03:05:11.392Z,9.60
2018-08-24T03:05:31.881Z,10.00
2018-08-24T03:05:52.560Z,10.30
2018-08-24T03:06:12.485Z,10.80
2018-08-24T03:06:32.842Z,10.50
2018-08-24T03:06:53.595Z,10.30
2018-08-24T03:07:13.462Z,9.90
2018-08-24T03:07:34.835Z,10.10
2018-08-24T03:07:54.289Z,10.20
2018-08-24T03:08:14.762Z,10.80
2018-08-24T03:08:35.967Z,10.70
2018-08-24T03:08:55.401Z,10.50
2018-08-24T03:09:15.957Z,10.20
2018-08-24T03:09:36.802Z,10.30
2018-08-24T03:09:56.236Z,10.70
2018-08-24T03:10:16.858Z,10.80
2018-08-24T03:10:37.442Z,10.90
2018-08-24T03:10:56.799Z,10.90
2018-08-24T03:11:17.240Z,11.30
2018-08-24T03:11:37.889Z,11.30
2018-08-24T03:11:57.931Z,11.30
2018-08-24T03:12:18.148Z,11.00
2018-08-24T03:12:38.369Z,10.60
2018-08-24T03:12:58.241Z,10.60
2018-08-24T03:13:19.410Z,10.50
2018-08-24T03:13:39.257Z,10.40
2018-08-24T03:13:59.391Z,9.90
2018-08-24T03:14:20.135Z,9.70
2018-08-24T03:14:39.503Z,10.60
2018-08-24T03:14:59.997Z,10.70
2018-08-24T03:15:21.309Z,10.60
2018-08-24T03:15:40.718Z,10.30
2018-08-24T03:16:01.430Z,10.70
2018-08-24T03:16:22.061Z,10.70
2018-08-24T03:17:01.492Z,9.70
2018-08-24T03:17:22.341Z,9.60
2018-08-24T03:17:42.246Z,9.90
2018-08-24T03:18:03.366Z,9.90
2018-08-24T03:18:23.014Z,9.70
2018-08-24T03:18:42.866Z,10.00
2018-08-24T03:19:04.196Z,10.20
2018-08-24T03:19:23.895Z,10.80
2018-08-24T03:19:43.933Z,10.70
2018-08-24T03:20:04.594Z,11.20
2018-08-24T03:20:24.231Z,10.60
2018-08-24T03:20:44.109Z,10.20
2018-08-24T03:21:05.433Z,9.80
2018-08-24T03:21:25.074Z,10.10
2018-08-24T03:21:45.000Z,10.20
2018-08-24T03:22:06.159Z,10.10
2018-08-24T03:22:25.584Z,10.00
2018-08-24T03:22:46.183Z,10.20
2018-08-24T03:23:06.985Z,10.40
2018-08-24T03:23:26.422Z,10.90
2018-08-24T03:23:46.893Z,11.10
2018-08-24T03:24:07.551Z,11.40
2018-08-24T03:24:27.443Z,11.20
2018-08-24T03:24:47.834Z,11.00
2018-08-24T03:25:08.659Z,10.80
2018-08-24T03:25:28.589Z,10.60
2018-08-24T03:25:50.007Z,11.30
2018-08-24T03:26:09.714Z,11.00
2018-08-24T03:26:29.616Z,11.10
2018-08-24T03:26:51.032Z,10.50
2018-08-24T03:27:10.468Z,10.70
2018-08-24T03:27:30.848Z,10.70
2018-08-24T03:27:51.979Z,10.30
2018-08-24T03:28:11.394Z,9.90
2018-08-24T03:28:31.879Z,10.00
2018-08-24T03:28:52.540Z,10.70
2018-08-24T03:29:12.495Z,11.30
2018-08-24T03:29:33.035Z,11.60
2018-08-24T03:29:53.208Z,11.10
2018-08-24T03:30:13.187Z,10.90
2018-08-24T03:30:34.488Z,10.70
2018-08-24T03:30:54.297Z,11.50
2018-08-24T03:31:14.194Z,11.90
2018-08-24T03:31:35.606Z,11.90
2018-08-24T03:31:54.954Z,11.50
2018-08-24T03:32:15.414Z,11.40
2018-08-24T03:32:36.843Z,11.30
2018-08-24T03:32:56.318Z,11.80
2018-08-24T03:33:16.758Z,12.20
2018-08-24T03:33:37.411Z,12.60
2018-08-24T03:33:57.305Z,12.30
2018-08-24T03:34:17.685Z,12.30
2018-08-24T03:34:38.396Z,12.70
2018-08-24T03:34:58.380Z,12.50
2018-08-24T03:35:19.770Z,12.30
2018-08-24T03:35:39.678Z,11.90
2018-08-24T03:35:59.719Z,11.80
2018-08-24T03:36:20.586Z,11.70
2018-08-24T03:36:39.948Z,11.90
2018-08-24T03:37:00.394Z,12.60
2018-08-24T03:37:21.615Z,12.60
2018-08-24T03:37:41.231Z,12.70
2018-08-24T03:38:01.218Z,12.50
2018-08-24T03:38:41.664Z,12.40
2018-08-24T03:39:02.480Z,12.50
2018-08-24T03:39:22.717Z,13.10
2018-08-24T03:39:42.693Z,13.10
2018-08-24T03:40:03.715Z,13.10
2018-08-24T03:40:23.509Z,12.20
2018-08-24T03:40:43.365Z,11.80
2018-08-24T03:41:04.518Z,10.90
2018-08-24T03:41:24.461Z,11.40
2018-08-24T03:41:44.356Z,11.80
2018-08-24T03:42:05.572Z,12.60
2018-08-24T03:42:25.232Z,13.00
2018-08-24T03:42:45.172Z,12.70
2018-08-24T03:43:06.606Z,12.40
2018-08-24T03:43:26.059Z,11.90
2018-08-24T03:43:46.519Z,12.40
2018-08-24T03:44:07.545Z,12.60
2018-08-24T03:44:27.061Z,12.40
2018-08-24T03:44:47.044Z,12.00
2018-08-24T03:45:07.695Z,12.00
2018-08-24T03:45:27.594Z,12.80
2018-08-24T03:45:48.018Z,13.20
2018-08-24T03:46:08.596Z,13.20
2018-08-24T03:46:28.515Z,12.90
2018-08-24T03:46:49.733Z,13.30
2018-08-24T03:47:09.372Z,13.60
2018-08-24T03:47:29.335Z,14.00
2018-08-24T03:47:50.766Z,13.50
2018-08-24T03:48:10.193Z,13.40
2018-08-24T03:48:30.580Z,13.00
2018-08-24T03:48:51.939Z,13.00
2018-08-24T03:49:11.367Z,13.10
2018-08-24T03:49:31.805Z,13.50
2018-08-24T03:49:52.475Z,14.00
2018-08-24T03:50:12.632Z,13.50
2018-08-24T03:50:32.584Z,12.90
2018-08-24T03:50:53.555Z,12.50
2018-08-24T03:51:13.530Z,12.20
2018-08-24T03:51:34.814Z,11.90
2018-08-24T03:51:54.631Z,12.20
2018-08-24T03:52:14.576Z,13.10
2018-08-24T03:52:36.050Z,13.90
2018-08-24T03:52:55.473Z,13.40
2018-08-24T03:53:15.955Z,13.50
2018-08-24T03:53:36.993Z,12.80
2018-08-24T03:53:56.416Z,13.20
2018-08-24T03:54:16.904Z,13.30
2018-08-24T03:54:37.702Z,14.10
2018-08-24T03:54:57.559Z,13.50
2018-08-24T03:55:18.121Z,13.30
2018-08-24T03:55:38.438Z,13.70
2018-08-24T03:55:58.410Z,15.00
2018-08-24T03:56:19.795Z,15.30
2018-08-24T03:56:39.263Z,14.20
2018-08-24T03:56:59.704Z,13.00
2018-08-24T03:57:23.663Z,12.30
2018-08-24T03:57:40.563Z,12.40
2018-08-24T03:58:00.930Z,12.40
2018-08-24T03:58:21.975Z,12.80
2018-08-24T03:58:41.916Z,12.80
2018-08-24T03:59:02.313Z,13.60
2018-08-24T03:59:22.658Z,14.00
2018-08-24T03:59:42.866Z,14.70
2018-08-24T04:00:03.237Z,14.70
2018-08-24T04:00:23.833Z,14.80
2018-08-24T04:00:43.328Z,14.90
2018-08-24T04:01:04.691Z,15.30
2018-08-24T04:01:24.345Z,15.40
2018-08-24T04:01:44.284Z,15.30
2018-08-24T04:02:05.397Z,14.80
2018-08-24T04:02:24.762Z,14.40
2018-08-24T04:02:45.457Z,14.00
2018-08-24T04:03:06.343Z,14.30
2018-08-24T04:03:25.961Z,15.60
2018-08-24T04:03:46.055Z,16.20
2018-08-24T04:04:07.050Z,16.40
2018-08-24T04:04:26.485Z,16.30
2018-08-24T04:04:47.132Z,16.70
2018-08-24T04:05:07.653Z,16.60
2018-08-24T04:05:47.076Z,15.70
2018-08-24T04:06:07.730Z,15.50
2018-08-24T04:06:28.098Z,15.40
2018-08-24T04:06:47.797Z,16.00
2018-08-24T04:07:08.481Z,15.40
2018-08-24T04:07:28.457Z,15.10
2018-08-24T04:07:49.667Z,15.50
2018-08-24T04:08:09.094Z,16.20
2018-08-24T04:08:29.578Z,17.30
2018-08-24T04:08:50.900Z,18.10
2018-08-24T04:09:10.617Z,18.60
2018-08-24T04:09:30.700Z,18.20
2018-08-24T04:09:51.520Z,17.50
2018-08-24T04:10:11.184Z,17.50
2018-08-24T04:10:31.637Z,18.10
2018-08-24T04:10:52.169Z,18.50
2018-08-24T04:11:11.574Z,18.00
2018-08-24T04:11:32.021Z,17.30
2018-08-24T04:11:52.677Z,17.20
2018-08-24T04:12:12.540Z,17.50
2018-08-24T04:12:33.216Z,17.40
2018-08-24T04:12:53.389Z,17.50
2018-08-24T04:13:13.447Z,17.30
2018-08-24T04:13:33.575Z,16.50
2018-08-24T04:13:54.117Z,16.00
2018-08-24T04:14:13.777Z,16.10
2018-08-24T04:14:34.014Z,16.50
2018-08-24T04:14:54.214Z,16.20
2018-08-24T04:15:14.713Z,16.00
2018-08-24T04:15:35.627Z,16.20
2018-08-24T04:15:55.026Z,15.90
2018-08-24T04:16:15.611Z,16.10
2018-08-24T04:16:36.396Z,16.40
2018-08-24T04:16:55.869Z,17.00
2018-08-24T04:17:16.327Z,17.20
2018-08-24T04:17:37.435Z,16.90
2018-08-24T04:17:56.791Z,17.80
2018-08-24T04:18:17.248Z,17.80
2018-08-24T04:18:38.011Z,18.30
2018-08-24T04:18:57.983Z,17.50
2018-08-24T04:19:19.185Z,17.80
2018-08-24T04:19:38.898Z,16.90
2018-08-24T04:19:58.838Z,16.80
2018-08-24T04:20:20.159Z,16.20
2018-08-24T04:20:39.981Z,16.10
2018-08-24T04:20:59.928Z,0.00
2018-08-24T04:21:21.070Z,17.10
2018-08-24T04:21:40.524Z,17.30
2018-08-24T04:22:01.081Z,17.10
2018-08-24T04:22:21.817Z,16.50
2018-08-24T04:22:41.223Z,16.40
2018-08-24T04:23:01.987Z,16.10
2018-08-24T04:23:22.366Z,16.60
2018-08-24T04:23:42.479Z,17.40
2018-08-24T04:24:02.720Z,17.40
2018-08-24T04:24:22.877Z,17.10
2018-08-24T04:24:42.786Z,16.20
2018-08-24T04:25:04.216Z,15.90
2018-08-24T04:25:23.929Z,16.10
2018-08-24T04:25:43.932Z,16.10
2018-08-24T04:26:05.218Z,16.10
2018-08-24T04:26:24.739Z,15.70
2018-08-24T04:26:44.595Z,16.10
2018-08-24T04:27:06.069Z,15.70
2018-08-24T04:27:25.691Z,15.40
2018-08-24T04:27:45.569Z,15.50
2018-08-24T04:28:06.310Z,16.20
2018-08-24T04:28:26.475Z,17.10
2018-08-24T04:28:46.434Z,17.40
2018-08-24T04:29:07.453Z,16.90
2018-08-24T04:29:26.820Z,16.50
2018-08-24T04:29:47.254Z,16.30
2018-08-24T04:30:07.906Z,16.40
2018-08-24T04:30:27.772Z,16.40
2018-08-24T04:30:48.504Z,16.20